Olympia, South Carolina
Current Conditions -  °F | °C
As of 6:53 PM on Wednesday 28 Jan 2015 (Local Time) from KCUB Reporting Station
Clear Clear  
Wind Chill: 41°   Ceiling: Unl
Heat Index: 41°   Visibility: 10mi
Dew Point: 25°   Wind: 0mph
Humidity: 53%   Direction: NA
Pressure: 30.3"   Gusts: NA
Location:  33.9841°N, 81.0264°W
Report Text: KCUB 282353Z AUTO 00000KT 10SM CLR 05/M04 A3030 RMK AO2 SLP259 T00501039 10111 20050 51014
Loading
Personal Weather Stations






























Interactive Weather Map New forecast layout! Learn more

10-Day Weather Forecast

Advertisements
Track Severe Weather on mobile